sensor_id;sensor_type;location;lat;lon;timestamp;P1;durP1;ratioP1;P2;durP2;ratioP2
4992;SDS011;2514;53.524;10.166;2022-09-13T00:00:59;2.80;;;1.90;;
4992;SDS011;2514;53.524;10.166;2022-09-13T00:03:27;1.52;;;1.38;;
4992;SDS011;2514;53.524;10.166;2022-09-13T00:05:54;4.00;;;2.00;;
4992;SDS011;2514;53.524;10.166;2022-09-13T00:08:21;1.88;;;1.50;;
4992;SDS011;2514;53.524;10.166;2022-09-13T00:10:50;3.67;;;1.55;;
4992;SDS011;2514;53.524;10.166;2022-09-13T00:13:17;1.42;;;1.33;;
4992;SDS011;2514;53.524;10.166;2022-09-13T00:15:45;1.65;;;1.50;;
4992;SDS011;2514;53.524;10.166;2022-09-13T00:18:14;1.00;;;0.80;;
4992;SDS011;2514;53.524;10.166;2022-09-13T00:20:43;1.20;;;0.98;;
4992;SDS011;2514;53.524;10.166;2022-09-13T00:23:11;1.15;;;1.05;;
4992;SDS011;2514;53.524;10.166;2022-09-13T00:25:38;2.90;;;2.17;;
4992;SDS011;2514;53.524;10.166;2022-09-13T00:28:07;5.35;;;1.65;;
4992;SDS011;2514;53.524;10.166;2022-09-13T00:30:35;1.20;;;0.90;;
4992;SDS011;2514;53.524;10.166;2022-09-13T00:33:02;9.90;;;1.60;;
4992;SDS011;2514;53.524;10.166;2022-09-13T00:35:29;2.60;;;1.77;;
4992;SDS011;2514;53.524;10.166;2022-09-13T00:37:58;3.63;;;2.60;;
4992;SDS011;2514;53.524;10.166;2022-09-13T00:40:25;5.20;;;2.50;;
4992;SDS011;2514;53.524;10.166;2022-09-13T00:42:54;1.10;;;0.60;;
4992;SDS011;2514;53.524;10.166;2022-09-13T00:45:23;1.17;;;0.82;;
4992;SDS011;2514;53.524;10.166;2022-09-13T00:47:52;2.05;;;1.25;;
4992;SDS011;2514;53.524;10.166;2022-09-13T00:50:22;1.30;;;1.00;;
4992;SDS011;2514;53.524;10.166;2022-09-13T00:52:54;11.10;;;1.40;;
4992;SDS011;2514;53.524;10.166;2022-09-13T00:55:28;1.10;;;1.00;;
4992;SDS011;2514;53.524;10.166;2022-09-13T00:58:00;3.40;;;1.50;;
4992;SDS011;2514;53.524;10.166;2022-09-13T01:00:33;1.70;;;0.70;;
4992;SDS011;2514;53.524;10.166;2022-09-13T01:03:03;0.90;;;0.50;;
4992;SDS011;2514;53.524;10.166;2022-09-13T01:05:36;0.93;;;0.52;;
4992;SDS011;2514;53.524;10.166;2022-09-13T01:08:07;1.75;;;1.15;;
4992;SDS011;2514;53.524;10.166;2022-09-13T01:10:42;1.63;;;1.52;;
4992;SDS011;2514;53.524;10.166;2022-09-13T01:13:11;2.10;;;1.30;;
4992;SDS011;2514;53.524;10.166;2022-09-13T01:15:44;1.33;;;1.23;;
4992;SDS011;2514;53.524;10.166;2022-09-13T01:18:12;0.90;;;0.60;;
4992;SDS011;2514;53.524;10.166;2022-09-13T01:20:44;2.60;;;1.70;;
4992;SDS011;2514;53.524;10.166;2022-09-13T01:23:52;2.00;;;1.70;;
4992;SDS011;2514;53.524;10.166;2022-09-13T01:27:10;1.08;;;0.98;;
4992;SDS011;2514;53.524;10.166;2022-09-13T01:30:07;1.35;;;1.25;;
4992;SDS011;2514;53.524;10.166;2022-09-13T01:32:41;2.63;;;2.42;;
4992;SDS011;2514;53.524;10.166;2022-09-13T01:35:53;3.13;;;1.27;;
4992;SDS011;2514;53.524;10.166;2022-09-13T01:38:44;0.80;;;0.40;;
4992;SDS011;2514;53.524;10.166;2022-09-13T01:41:26;1.40;;;1.20;;
4992;SDS011;2514;53.524;10.166;2022-09-13T01:44:16;0.80;;;0.50;;
4992;SDS011;2514;53.524;10.166;2022-09-13T01:46:59;1.08;;;0.98;;
4992;SDS011;2514;53.524;10.166;2022-09-13T01:49:33;1.27;;;1.17;;
4992;SDS011;2514;53.524;10.166;2022-09-13T01:52:13;1.13;;;0.90;;
4992;SDS011;2514;53.524;10.166;2022-09-13T01:54:51;4.60;;;2.65;;
4992;SDS011;2514;53.524;10.166;2022-09-13T01:57:27;3.20;;;2.17;;
4992;SDS011;2514;53.524;10.166;2022-09-13T01:59:59;3.83;;;3.17;;
4992;SDS011;2514;53.524;10.166;2022-09-13T02:02:33;1.57;;;1.47;;
4992;SDS011;2514;53.524;10.166;2022-09-13T02:05:06;0.80;;;0.60;;
4992;SDS011;2514;53.524;10.166;2022-09-13T02:07:40;1.70;;;1.60;;
4992;SDS011;2514;53.524;10.166;2022-09-13T02:10:11;2.90;;;2.27;;
4992;SDS011;2514;53.524;10.166;2022-09-13T02:12:42;3.63;;;2.55;;
4992;SDS011;2514;53.524;10.166;2022-09-13T02:15:13;2.50;;;2.30;;
4992;SDS011;2514;53.524;10.166;2022-09-13T02:17:48;1.00;;;0.90;;
4992;SDS011;2514;53.524;10.166;2022-09-13T02:20:22;1.08;;;0.90;;
4992;SDS011;2514;53.524;10.166;2022-09-13T02:22:55;3.88;;;2.20;;
4992;SDS011;2514;53.524;10.166;2022-09-13T02:25:26;2.70;;;2.50;;
4992;SDS011;2514;53.524;10.166;2022-09-13T02:27:58;4.90;;;1.50;;
4992;SDS011;2514;53.524;10.166;2022-09-13T02:30:29;4.55;;;2.97;;
4992;SDS011;2514;53.524;10.166;2022-09-13T02:33:00;1.60;;;1.50;;
4992;SDS011;2514;53.524;10.166;2022-09-13T02:35:33;2.37;;;2.03;;
4992;SDS011;2514;53.524;10.166;2022-09-13T02:38:06;1.17;;;0.90;;
4992;SDS011;2514;53.524;10.166;2022-09-13T02:40:38;2.00;;;1.60;;
4992;SDS011;2514;53.524;10.166;2022-09-13T02:43:14;1.58;;;1.48;;
4992;SDS011;2514;53.524;10.166;2022-09-13T02:45:47;2.85;;;2.03;;
4992;SDS011;2514;53.524;10.166;2022-09-13T02:48:24;1.40;;;1.00;;
4992;SDS011;2514;53.524;10.166;2022-09-13T02:50:59;4.90;;;1.42;;
4992;SDS011;2514;53.524;10.166;2022-09-13T02:53:33;1.48;;;1.02;;
4992;SDS011;2514;53.524;10.166;2022-09-13T02:56:09;1.13;;;1.02;;
4992;SDS011;2514;53.524;10.166;2022-09-13T02:58:47;1.42;;;1.23;;
4992;SDS011;2514;53.524;10.166;2022-09-13T03:01:22;2.80;;;1.77;;
4992;SDS011;2514;53.524;10.166;2022-09-13T03:03:51;2.40;;;1.60;;
4992;SDS011;2514;53.524;10.166;2022-09-13T03:06:22;1.70;;;1.58;;
4992;SDS011;2514;53.524;10.166;2022-09-13T03:08:49;0.90;;;0.80;;
4992;SDS011;2514;53.524;10.166;2022-09-13T03:11:19;0.80;;;0.40;;
4992;SDS011;2514;53.524;10.166;2022-09-13T03:14:04;2.50;;;1.48;;
4992;SDS011;2514;53.524;10.166;2022-09-13T03:16:53;1.30;;;1.20;;
4992;SDS011;2514;53.524;10.166;2022-09-13T03:19:38;0.97;;;0.73;;
4992;SDS011;2514;53.524;10.166;2022-09-13T03:25:51;1.90;;;0.90;;
4992;SDS011;2514;53.524;10.166;2022-09-13T03:28:38;2.88;;;2.13;;
4992;SDS011;2514;53.524;10.166;2022-09-13T03:31:19;2.65;;;1.30;;
4992;SDS011;2514;53.524;10.166;2022-09-13T03:33:55;1.20;;;0.90;;
4992;SDS011;2514;53.524;10.166;2022-09-13T03:36:31;1.40;;;1.00;;
4992;SDS011;2514;53.524;10.166;2022-09-13T03:39:05;1.30;;;1.20;;
4992;SDS011;2514;53.524;10.166;2022-09-13T03:41:39;2.30;;;1.40;;
4992;SDS011;2514;53.524;10.166;2022-09-13T03:44:12;0.90;;;0.70;;
4992;SDS011;2514;53.524;10.166;2022-09-13T03:46:42;1.27;;;1.17;;
4992;SDS011;2514;53.524;10.166;2022-09-13T03:49:13;2.90;;;1.90;;
4992;SDS011;2514;53.524;10.166;2022-09-13T03:51:44;3.08;;;2.78;;
4992;SDS011;2514;53.524;10.166;2022-09-13T03:54:15;7.32;;;5.30;;
4992;SDS011;2514;53.524;10.166;2022-09-13T03:59:34;2.53;;;2.33;;
4992;SDS011;2514;53.524;10.166;2022-09-13T04:02:03;2.83;;;2.53;;
4992;SDS011;2514;53.524;10.166;2022-09-13T04:04:31;4.43;;;3.47;;
4992;SDS011;2514;53.524;10.166;2022-09-13T04:07:00;4.57;;;2.72;;
4992;SDS011;2514;53.524;10.166;2022-09-13T04:09:28;4.63;;;2.50;;
4992;SDS011;2514;53.524;10.166;2022-09-13T04:11:55;3.92;;;3.53;;
4992;SDS011;2514;53.524;10.166;2022-09-13T04:14:22;4.70;;;3.40;;
4992;SDS011;2514;53.524;10.166;2022-09-13T04:16:51;6.43;;;3.72;;
4992;SDS011;2514;53.524;10.166;2022-09-13T04:19:19;2.70;;;2.60;;
4992;SDS011;2514;53.524;10.166;2022-09-13T04:21:47;1.42;;;1.23;;
4992;SDS011;2514;53.524;10.166;2022-09-13T04:24:16;1.40;;;1.10;;
4992;SDS011;2514;53.524;10.166;2022-09-13T04:26:44;4.70;;;2.80;;
4992;SDS011;2514;53.524;10.166;2022-09-13T04:29:15;5.10;;;3.40;;
4992;SDS011;2514;53.524;10.166;2022-09-13T04:31:42;6.50;;;1.40;;
4992;SDS011;2514;53.524;10.166;2022-09-13T04:34:09;3.38;;;3.08;;
4992;SDS011;2514;53.524;10.166;2022-09-13T04:36:36;15.32;;;4.32;;
4992;SDS011;2514;53.524;10.166;2022-09-13T04:39:04;7.97;;;3.25;;
4992;SDS011;2514;53.524;10.166;2022-09-13T04:41:32;5.60;;;2.50;;
4992;SDS011;2514;53.524;10.166;2022-09-13T04:43:59;5.50;;;1.70;;
4992;SDS011;2514;53.524;10.166;2022-09-13T04:46:27;2.40;;;2.20;;
4992;SDS011;2514;53.524;10.166;2022-09-13T04:48:55;3.40;;;3.10;;
4992;SDS011;2514;53.524;10.166;2022-09-13T04:51:22;4.53;;;1.73;;
4992;SDS011;2514;53.524;10.166;2022-09-13T04:53:50;4.40;;;2.30;;
4992;SDS011;2514;53.524;10.166;2022-09-13T04:56:18;5.45;;;3.58;;
4992;SDS011;2514;53.524;10.166;2022-09-13T04:58:47;1.13;;;1.03;;
4992;SDS011;2514;53.524;10.166;2022-09-13T05:01:14;4.00;;;3.00;;
4992;SDS011;2514;53.524;10.166;2022-09-13T05:03:41;6.25;;;3.40;;
4992;SDS011;2514;53.524;10.166;2022-09-13T05:06:08;2.60;;;2.40;;
4992;SDS011;2514;53.524;10.166;2022-09-13T05:08:38;5.60;;;3.95;;
4992;SDS011;2514;53.524;10.166;2022-09-13T05:11:05;2.90;;;2.55;;
4992;SDS011;2514;53.524;10.166;2022-09-13T05:13:33;1.50;;;1.40;;
4992;SDS011;2514;53.524;10.166;2022-09-13T05:16:03;6.35;;;2.88;;
4992;SDS011;2514;53.524;10.166;2022-09-13T05:18:32;2.00;;;1.90;;
4992;SDS011;2514;53.524;10.166;2022-09-13T05:21:01;5.10;;;2.97;;
4992;SDS011;2514;53.524;10.166;2022-09-13T05:23:30;3.63;;;2.20;;
4992;SDS011;2514;53.524;10.166;2022-09-13T05:25:58;3.25;;;2.95;;
4992;SDS011;2514;53.524;10.166;2022-09-13T05:28:27;8.13;;;6.03;;
4992;SDS011;2514;53.524;10.166;2022-09-13T05:30:56;6.80;;;6.10;;
4992;SDS011;2514;53.524;10.166;2022-09-13T05:33:27;9.13;;;8.18;;
4992;SDS011;2514;53.524;10.166;2022-09-13T05:35:57;7.30;;;2.35;;
4992;SDS011;2514;53.524;10.166;2022-09-13T05:38:24;3.50;;;2.70;;
4992;SDS011;2514;53.524;10.166;2022-09-13T05:40:52;2.20;;;2.10;;
4992;SDS011;2514;53.524;10.166;2022-09-13T05:43:21;0.82;;;0.57;;
4992;SDS011;2514;53.524;10.166;2022-09-13T05:45:48;2.40;;;2.20;;
4992;SDS011;2514;53.524;10.166;2022-09-13T05:48:15;4.50;;;2.20;;
4992;SDS011;2514;53.524;10.166;2022-09-13T05:50:45;6.45;;;3.15;;
4992;SDS011;2514;53.524;10.166;2022-09-13T05:53:12;1.30;;;1.20;;
4992;SDS011;2514;53.524;10.166;2022-09-13T05:55:39;10.00;;;2.50;;
4992;SDS011;2514;53.524;10.166;2022-09-13T05:58:06;4.10;;;2.13;;
4992;SDS011;2514;53.524;10.166;2022-09-13T06:00:33;6.90;;;4.30;;
4992;SDS011;2514;53.524;10.166;2022-09-13T06:03:00;7.10;;;2.90;;
4992;SDS011;2514;53.524;10.166;2022-09-13T06:05:27;2.08;;;1.70;;
4992;SDS011;2514;53.524;10.166;2022-09-13T06:07:55;6.85;;;2.63;;
4992;SDS011;2514;53.524;10.166;2022-09-13T06:10:22;18.60;;;2.60;;
4992;SDS011;2514;53.524;10.166;2022-09-13T06:12:50;3.30;;;2.30;;
4992;SDS011;2514;53.524;10.166;2022-09-13T06:15:17;5.40;;;3.80;;
4992;SDS011;2514;53.524;10.166;2022-09-13T06:17:44;3.10;;;2.80;;
4992;SDS011;2514;53.524;10.166;2022-09-13T06:20:11;2.20;;;1.80;;
4992;SDS011;2514;53.524;10.166;2022-09-13T06:22:38;2.65;;;2.05;;
4992;SDS011;2514;53.524;10.166;2022-09-13T06:25:07;8.05;;;4.07;;
4992;SDS011;2514;53.524;10.166;2022-09-13T06:27:34;5.20;;;2.70;;
4992;SDS011;2514;53.524;10.166;2022-09-13T06:30:01;1.33;;;1.13;;
4992;SDS011;2514;53.524;10.166;2022-09-13T06:32:29;1.13;;;0.98;;
4992;SDS011;2514;53.524;10.166;2022-09-13T06:34:56;4.47;;;2.20;;
4992;SDS011;2514;53.524;10.166;2022-09-13T06:37:24;7.40;;;2.40;;
4992;SDS011;2514;53.524;10.166;2022-09-13T06:39:51;3.30;;;3.00;;
4992;SDS011;2514;53.524;10.166;2022-09-13T06:42:19;4.83;;;1.13;;
4992;SDS011;2514;53.524;10.166;2022-09-13T06:44:46;4.20;;;3.00;;
4992;SDS011;2514;53.524;10.166;2022-09-13T06:47:13;0.80;;;0.40;;
4992;SDS011;2514;53.524;10.166;2022-09-13T06:49:40;1.90;;;1.20;;
4992;SDS011;2514;53.524;10.166;2022-09-13T06:52:07;1.73;;;1.27;;
4992;SDS011;2514;53.524;10.166;2022-09-13T06:54:34;1.20;;;1.10;;
4992;SDS011;2514;53.524;10.166;2022-09-13T06:57:01;3.40;;;1.90;;
4992;SDS011;2514;53.524;10.166;2022-09-13T06:59:30;2.30;;;1.50;;
4992;SDS011;2514;53.524;10.166;2022-09-13T07:01:59;9.95;;;3.65;;
4992;SDS011;2514;53.524;10.166;2022-09-13T07:04:26;3.13;;;1.85;;
4992;SDS011;2514;53.524;10.166;2022-09-13T07:06:55;4.13;;;2.42;;
4992;SDS011;2514;53.524;10.166;2022-09-13T07:09:24;2.53;;;2.13;;
4992;SDS011;2514;53.524;10.166;2022-09-13T07:11:52;5.85;;;3.20;;
4992;SDS011;2514;53.524;10.166;2022-09-13T07:14:21;1.80;;;1.70;;
4992;SDS011;2514;53.524;10.166;2022-09-13T07:16:51;3.97;;;1.95;;
4992;SDS011;2514;53.524;10.166;2022-09-13T07:19:19;1.98;;;1.65;;
4992;SDS011;2514;53.524;10.166;2022-09-13T07:21:48;1.63;;;0.77;;
4992;SDS011;2514;53.524;10.166;2022-09-13T07:24:16;1.80;;;1.10;;
4992;SDS011;2514;53.524;10.166;2022-09-13T07:26:44;3.20;;;2.63;;
4992;SDS011;2514;53.524;10.166;2022-09-13T07:29:13;0.80;;;0.40;;
4992;SDS011;2514;53.524;10.166;2022-09-13T07:31:43;4.70;;;2.92;;
4992;SDS011;2514;53.524;10.166;2022-09-13T07:34:14;1.40;;;0.90;;
4992;SDS011;2514;53.524;10.166;2022-09-13T07:36:43;1.63;;;1.53;;
4992;SDS011;2514;53.524;10.166;2022-09-13T07:39:11;2.20;;;1.90;;
4992;SDS011;2514;53.524;10.166;2022-09-13T07:41:38;6.22;;;3.08;;
4992;SDS011;2514;53.524;10.166;2022-09-13T07:44:05;6.32;;;2.28;;
4992;SDS011;2514;53.524;10.166;2022-09-13T07:46:35;1.70;;;1.60;;
4992;SDS011;2514;53.524;10.166;2022-09-13T07:49:04;6.47;;;2.58;;
4992;SDS011;2514;53.524;10.166;2022-09-13T07:51:33;1.70;;;1.60;;
4992;SDS011;2514;53.524;10.166;2022-09-13T07:54:04;1.30;;;1.20;;
4992;SDS011;2514;53.524;10.166;2022-09-13T07:56:36;2.15;;;1.83;;
4992;SDS011;2514;53.524;10.166;2022-09-13T07:59:06;4.03;;;2.83;;
4992;SDS011;2514;53.524;10.166;2022-09-13T08:01:38;3.40;;;2.50;;
4992;SDS011;2514;53.524;10.166;2022-09-13T08:04:07;6.38;;;3.30;;
4992;SDS011;2514;53.524;10.166;2022-09-13T08:06:38;2.63;;;1.75;;
4992;SDS011;2514;53.524;10.166;2022-09-13T08:09:07;1.30;;;1.10;;
4992;SDS011;2514;53.524;10.166;2022-09-13T08:11:36;9.02;;;2.78;;
4992;SDS011;2514;53.524;10.166;2022-09-13T08:14:05;4.10;;;1.90;;
4992;SDS011;2514;53.524;10.166;2022-09-13T08:16:35;2.13;;;1.88;;
4992;SDS011;2514;53.524;10.166;2022-09-13T08:19:03;2.60;;;2.40;;
4992;SDS011;2514;53.524;10.166;2022-09-13T08:21:32;1.40;;;1.27;;
4992;SDS011;2514;53.524;10.166;2022-09-13T08:24:02;1.85;;;1.10;;
4992;SDS011;2514;53.524;10.166;2022-09-13T08:26:33;7.85;;;2.00;;
4992;SDS011;2514;53.524;10.166;2022-09-13T08:29:02;5.60;;;2.70;;
4992;SDS011;2514;53.524;10.166;2022-09-13T08:31:31;2.40;;;2.10;;
4992;SDS011;2514;53.524;10.166;2022-09-13T08:33:59;2.30;;;1.70;;
4992;SDS011;2514;53.524;10.166;2022-09-13T08:36:26;4.40;;;2.40;;
4992;SDS011;2514;53.524;10.166;2022-09-13T08:38:55;1.63;;;1.33;;
4992;SDS011;2514;53.524;10.166;2022-09-13T08:41:32;1.15;;;0.93;;
4992;SDS011;2514;53.524;10.166;2022-09-13T08:44:33;2.13;;;0.90;;
4992;SDS011;2514;53.524;10.166;2022-09-13T08:47:06;6.40;;;1.85;;
4992;SDS011;2514;53.524;10.166;2022-09-13T08:50:05;1.10;;;0.80;;
4992;SDS011;2514;53.524;10.166;2022-09-13T08:52:45;1.42;;;1.33;;
4992;SDS011;2514;53.524;10.166;2022-09-13T08:55:24;1.40;;;1.25;;
4992;SDS011;2514;53.524;10.166;2022-09-13T08:58:03;1.17;;;1.00;;
4992;SDS011;2514;53.524;10.166;2022-09-13T09:00:46;5.00;;;2.50;;
4992;SDS011;2514;53.524;10.166;2022-09-13T09:03:19;2.10;;;1.10;;
4992;SDS011;2514;53.524;10.166;2022-09-13T09:05:55;1.20;;;0.70;;
4992;SDS011;2514;53.524;10.166;2022-09-13T09:08:26;2.20;;;1.20;;
4992;SDS011;2514;53.524;10.166;2022-09-13T09:11:01;1.00;;;0.70;;
4992;SDS011;2514;53.524;10.166;2022-09-13T09:13:36;0.90;;;0.63;;
4992;SDS011;2514;53.524;10.166;2022-09-13T09:16:12;3.20;;;0.90;;
4992;SDS011;2514;53.524;10.166;2022-09-13T09:18:54;1.00;;;0.90;;
4992;SDS011;2514;53.524;10.166;2022-09-13T09:21:31;5.20;;;1.30;;
4992;SDS011;2514;53.524;10.166;2022-09-13T09:23:59;1.30;;;1.00;;
4992;SDS011;2514;53.524;10.166;2022-09-13T09:26:29;0.90;;;0.50;;
4992;SDS011;2514;53.524;10.166;2022-09-13T09:28:59;1.40;;;0.70;;
4992;SDS011;2514;53.524;10.166;2022-09-13T09:31:33;2.50;;;0.60;;
4992;SDS011;2514;53.524;10.166;2022-09-13T09:34:11;1.35;;;0.63;;
4992;SDS011;2514;53.524;10.166;2022-09-13T09:36:48;5.00;;;1.50;;
4992;SDS011;2514;53.524;10.166;2022-09-13T09:39:22;3.00;;;0.90;;
4992;SDS011;2514;53.524;10.166;2022-09-13T09:41:56;1.10;;;0.80;;
4992;SDS011;2514;53.524;10.166;2022-09-13T09:44:26;5.70;;;1.00;;
4992;SDS011;2514;53.524;10.166;2022-09-13T09:46:59;1.00;;;0.70;;
4992;SDS011;2514;53.524;10.166;2022-09-13T09:49:36;3.10;;;0.57;;
4992;SDS011;2514;53.524;10.166;2022-09-13T09:52:25;0.90;;;0.50;;
4992;SDS011;2514;53.524;10.166;2022-09-13T09:54:58;1.20;;;0.60;;
4992;SDS011;2514;53.524;10.166;2022-09-13T10:00:26;1.60;;;0.70;;
4992;SDS011;2514;53.524;10.166;2022-09-13T10:02:57;7.90;;;0.90;;
4992;SDS011;2514;53.524;10.166;2022-09-13T10:05:26;1.00;;;0.60;;
4992;SDS011;2514;53.524;10.166;2022-09-13T10:07:57;1.40;;;0.50;;
4992;SDS011;2514;53.524;10.166;2022-09-13T10:10:29;2.70;;;1.30;;
4992;SDS011;2514;53.524;10.166;2022-09-13T10:13:11;1.20;;;0.50;;
4992;SDS011;2514;53.524;10.166;2022-09-13T10:15:52;1.00;;;0.50;;
4992;SDS011;2514;53.524;10.166;2022-09-13T10:18:22;1.08;;;0.50;;
4992;SDS011;2514;53.524;10.166;2022-09-13T10:21:01;1.30;;;0.70;;
4992;SDS011;2514;53.524;10.166;2022-09-13T10:23:30;2.60;;;0.60;;
4992;SDS011;2514;53.524;10.166;2022-09-13T10:26:07;1.00;;;0.50;;
4992;SDS011;2514;53.524;10.166;2022-09-13T10:28:42;3.58;;;1.00;;
4992;SDS011;2514;53.524;10.166;2022-09-13T10:31:15;5.20;;;0.90;;
4992;SDS011;2514;53.524;10.166;2022-09-13T10:33:50;1.08;;;0.60;;
4992;SDS011;2514;53.524;10.166;2022-09-13T10:36:23;2.50;;;0.90;;
4992;SDS011;2514;53.524;10.166;2022-09-13T10:38:55;2.00;;;0.70;;
4992;SDS011;2514;53.524;10.166;2022-09-13T10:41:26;2.90;;;1.00;;
4992;SDS011;2514;53.524;10.166;2022-09-13T10:43:56;2.50;;;1.00;;
4992;SDS011;2514;53.524;10.166;2022-09-13T10:46:27;0.90;;;0.40;;
4992;SDS011;2514;53.524;10.166;2022-09-13T10:48:57;3.40;;;0.65;;
4992;SDS011;2514;53.524;10.166;2022-09-13T10:51:33;2.97;;;1.13;;
4992;SDS011;2514;53.524;10.166;2022-09-13T10:54:06;1.40;;;0.75;;
4992;SDS011;2514;53.524;10.166;2022-09-13T10:56:45;2.00;;;0.70;;
4992;SDS011;2514;53.524;10.166;2022-09-13T10:59:18;1.20;;;0.70;;
4992;SDS011;2514;53.524;10.166;2022-09-13T11:01:52;3.05;;;1.30;;
4992;SDS011;2514;53.524;10.166;2022-09-13T11:05:00;1.00;;;0.60;;
4992;SDS011;2514;53.524;10.166;2022-09-13T11:07:44;1.70;;;0.80;;
4992;SDS011;2514;53.524;10.166;2022-09-13T11:10:28;1.70;;;1.00;;
4992;SDS011;2514;53.524;10.166;2022-09-13T11:13:04;2.20;;;1.30;;
4992;SDS011;2514;53.524;10.166;2022-09-13T11:15:43;1.00;;;0.50;;
4992;SDS011;2514;53.524;10.166;2022-09-13T11:18:23;1.88;;;0.60;;
4992;SDS011;2514;53.524;10.166;2022-09-13T11:21:21;1.60;;;0.70;;
4992;SDS011;2514;53.524;10.166;2022-09-13T11:24:13;0.90;;;0.40;;
4992;SDS011;2514;53.524;10.166;2022-09-13T11:27:06;1.30;;;0.70;;
4992;SDS011;2514;53.524;10.166;2022-09-13T11:29:47;1.05;;;0.50;;
4992;SDS011;2514;53.524;10.166;2022-09-13T11:32:48;2.53;;;0.65;;
4992;SDS011;2514;53.524;10.166;2022-09-13T11:35:48;2.30;;;0.90;;
4992;SDS011;2514;53.524;10.166;2022-09-13T11:38:39;1.80;;;0.60;;
4992;SDS011;2514;53.524;10.166;2022-09-13T11:41:18;3.70;;;0.60;;
4992;SDS011;2514;53.524;10.166;2022-09-13T11:44:03;1.10;;;0.70;;
4992;SDS011;2514;53.524;10.166;2022-09-13T11:46:54;3.00;;;0.73;;
4992;SDS011;2514;53.524;10.166;2022-09-13T11:52:27;2.20;;;1.00;;
4992;SDS011;2514;53.524;10.166;2022-09-13T11:55:12;1.50;;;0.90;;
4992;SDS011;2514;53.524;10.166;2022-09-13T11:57:43;1.38;;;0.80;;
4992;SDS011;2514;53.524;10.166;2022-09-13T12:00:19;1.10;;;0.80;;
4992;SDS011;2514;53.524;10.166;2022-09-13T12:02:50;2.90;;;1.00;;
4992;SDS011;2514;53.524;10.166;2022-09-13T12:05:26;1.00;;;0.40;;
4992;SDS011;2514;53.524;10.166;2022-09-13T12:08:00;2.60;;;0.70;;
4992;SDS011;2514;53.524;10.166;2022-09-13T12:10:32;1.20;;;0.70;;
4992;SDS011;2514;53.524;10.166;2022-09-13T12:13:05;1.00;;;0.65;;
4992;SDS011;2514;53.524;10.166;2022-09-13T12:15:40;1.20;;;0.70;;
4992;SDS011;2514;53.524;10.166;2022-09-13T12:18:10;6.93;;;1.05;;
4992;SDS011;2514;53.524;10.166;2022-09-13T12:20:43;1.70;;;1.10;;
4992;SDS011;2514;53.524;10.166;2022-09-13T12:23:18;1.40;;;0.80;;
4992;SDS011;2514;53.524;10.166;2022-09-13T12:25:51;2.00;;;0.50;;
4992;SDS011;2514;53.524;10.166;2022-09-13T12:28:25;1.30;;;0.70;;
4992;SDS011;2514;53.524;10.166;2022-09-13T12:30:57;1.20;;;0.90;;
4992;SDS011;2514;53.524;10.166;2022-09-13T12:33:27;1.98;;;0.93;;
4992;SDS011;2514;53.524;10.166;2022-09-13T12:42:07;1.00;;;0.50;;
4992;SDS011;2514;53.524;10.166;2022-09-13T12:45:15;1.50;;;1.00;;
4992;SDS011;2514;53.524;10.166;2022-09-13T12:48:09;3.40;;;1.35;;
4992;SDS011;2514;53.524;10.166;2022-09-13T12:50:50;2.90;;;1.00;;
4992;SDS011;2514;53.524;10.166;2022-09-13T12:56:41;2.83;;;0.73;;
4992;SDS011;2514;53.524;10.166;2022-09-13T12:59:24;1.20;;;0.80;;
4992;SDS011;2514;53.524;10.166;2022-09-13T13:02:25;10.70;;;1.00;;
4992;SDS011;2514;53.524;10.166;2022-09-13T13:04:57;1.00;;;0.50;;
4992;SDS011;2514;53.524;10.166;2022-09-13T13:07:28;5.60;;;1.30;;
4992;SDS011;2514;53.524;10.166;2022-09-13T13:09:58;1.10;;;0.70;;
4992;SDS011;2514;53.524;10.166;2022-09-13T13:12:29;1.50;;;0.60;;
4992;SDS011;2514;53.524;10.166;2022-09-13T13:14:59;3.35;;;0.60;;
4992;SDS011;2514;53.524;10.166;2022-09-13T13:17:44;1.70;;;0.80;;
4992;SDS011;2514;53.524;10.166;2022-09-13T13:23:17;1.00;;;0.70;;
4992;SDS011;2514;53.524;10.166;2022-09-13T13:25:55;1.40;;;0.70;;
4992;SDS011;2514;53.524;10.166;2022-09-13T13:31:33;2.80;;;0.50;;
4992;SDS011;2514;53.524;10.166;2022-09-13T13:34:09;3.60;;;0.90;;
4992;SDS011;2514;53.524;10.166;2022-09-13T13:40:20;1.00;;;0.60;;
4992;SDS011;2514;53.524;10.166;2022-09-13T13:45:56;1.40;;;0.70;;
4992;SDS011;2514;53.524;10.166;2022-09-13T13:48:40;3.40;;;0.60;;
4992;SDS011;2514;53.524;10.166;2022-09-13T13:51:13;1.00;;;0.60;;
4992;SDS011;2514;53.524;10.166;2022-09-13T13:53:48;1.02;;;0.50;;
4992;SDS011;2514;53.524;10.166;2022-09-13T13:56:24;4.20;;;0.80;;
4992;SDS011;2514;53.524;10.166;2022-09-13T13:59:03;1.40;;;1.00;;
4992;SDS011;2514;53.524;10.166;2022-09-13T14:01:38;1.00;;;0.90;;
4992;SDS011;2514;53.524;10.166;2022-09-13T14:07:23;7.00;;;0.70;;
4992;SDS011;2514;53.524;10.166;2022-09-13T14:10:23;1.20;;;0.70;;
4992;SDS011;2514;53.524;10.166;2022-09-13T14:13:08;3.30;;;1.10;;
4992;SDS011;2514;53.524;10.166;2022-09-13T14:15:52;2.00;;;0.90;;
4992;SDS011;2514;53.524;10.166;2022-09-13T14:18:36;1.90;;;0.85;;
4992;SDS011;2514;53.524;10.166;2022-09-13T14:21:21;9.40;;;1.30;;
4992;SDS011;2514;53.524;10.166;2022-09-13T14:23:54;1.60;;;0.70;;
4992;SDS011;2514;53.524;10.166;2022-09-13T14:26:37;1.15;;;0.55;;
4992;SDS011;2514;53.524;10.166;2022-09-13T14:29:05;2.30;;;0.90;;
4992;SDS011;2514;53.524;10.166;2022-09-13T14:31:33;1.10;;;0.60;;
4992;SDS011;2514;53.524;10.166;2022-09-13T14:34:01;2.78;;;1.02;;
4992;SDS011;2514;53.524;10.166;2022-09-13T14:36:28;1.10;;;0.70;;
4992;SDS011;2514;53.524;10.166;2022-09-13T14:38:57;4.05;;;1.00;;
4992;SDS011;2514;53.524;10.166;2022-09-13T14:41:29;1.00;;;0.50;;
4992;SDS011;2514;53.524;10.166;2022-09-13T14:44:19;6.70;;;1.40;;
4992;SDS011;2514;53.524;10.166;2022-09-13T14:46:50;4.80;;;0.80;;
4992;SDS011;2514;53.524;10.166;2022-09-13T14:49:24;1.00;;;0.50;;
4992;SDS011;2514;53.524;10.166;2022-09-13T14:51:56;3.47;;;0.60;;
4992;SDS011;2514;53.524;10.166;2022-09-13T14:54:30;1.70;;;0.60;;
4992;SDS011;2514;53.524;10.166;2022-09-13T14:57:04;1.50;;;0.97;;
4992;SDS011;2514;53.524;10.166;2022-09-13T14:59:36;0.90;;;0.60;;
4992;SDS011;2514;53.524;10.166;2022-09-13T15:02:13;5.90;;;0.80;;
4992;SDS011;2514;53.524;10.166;2022-09-13T15:04:46;5.60;;;0.90;;
4992;SDS011;2514;53.524;10.166;2022-09-13T15:07:19;4.40;;;0.80;;
4992;SDS011;2514;53.524;10.166;2022-09-13T15:09:50;3.13;;;1.00;;
4992;SDS011;2514;53.524;10.166;2022-09-13T15:12:24;1.10;;;0.60;;
4992;SDS011;2514;53.524;10.166;2022-09-13T15:17:58;1.30;;;0.80;;
4992;SDS011;2514;53.524;10.166;2022-09-13T15:20:27;3.10;;;1.30;;
4992;SDS011;2514;53.524;10.166;2022-09-13T15:22:56;4.53;;;0.90;;
4992;SDS011;2514;53.524;10.166;2022-09-13T15:25:25;1.10;;;0.70;;
4992;SDS011;2514;53.524;10.166;2022-09-13T15:27:55;2.35;;;1.00;;
4992;SDS011;2514;53.524;10.166;2022-09-13T15:30:25;0.90;;;0.40;;
4992;SDS011;2514;53.524;10.166;2022-09-13T15:33:14;1.00;;;0.60;;
4992;SDS011;2514;53.524;10.166;2022-09-13T15:35:48;1.02;;;0.57;;
4992;SDS011;2514;53.524;10.166;2022-09-13T15:38:20;1.60;;;0.80;;
4992;SDS011;2514;53.524;10.166;2022-09-13T15:40:59;5.03;;;1.40;;
4992;SDS011;2514;53.524;10.166;2022-09-13T15:43:29;1.80;;;0.80;;
4992;SDS011;2514;53.524;10.166;2022-09-13T15:45:57;7.93;;;0.90;;
4992;SDS011;2514;53.524;10.166;2022-09-13T15:48:26;1.80;;;0.80;;
4992;SDS011;2514;53.524;10.166;2022-09-13T15:53:41;1.00;;;0.60;;
4992;SDS011;2514;53.524;10.166;2022-09-13T15:56:13;7.97;;;1.52;;
4992;SDS011;2514;53.524;10.166;2022-09-13T15:58:43;4.35;;;1.20;;
4992;SDS011;2514;53.524;10.166;2022-09-13T16:01:10;5.00;;;0.90;;
4992;SDS011;2514;53.524;10.166;2022-09-13T16:03:39;3.53;;;0.70;;
4992;SDS011;2514;53.524;10.166;2022-09-13T16:06:06;1.70;;;0.60;;
4992;SDS011;2514;53.524;10.166;2022-09-13T16:08:34;1.00;;;0.57;;
4992;SDS011;2514;53.524;10.166;2022-09-13T16:11:02;2.00;;;0.52;;
4992;SDS011;2514;53.524;10.166;2022-09-13T16:13:31;1.80;;;0.95;;
4992;SDS011;2514;53.524;10.166;2022-09-13T16:15:58;2.40;;;1.30;;
4992;SDS011;2514;53.524;10.166;2022-09-13T16:18:25;4.20;;;1.65;;
4992;SDS011;2514;53.524;10.166;2022-09-13T16:20:52;2.30;;;0.80;;